createdAt,value
2022-10-17T00:00:19.082Z,99.90
2022-10-17T00:03:31.771Z,99.90
2022-10-17T00:06:11.844Z,99.90
2022-10-17T00:08:40.892Z,99.90
2022-10-17T00:11:17.624Z,99.90
2022-10-17T00:13:45.736Z,99.90
2022-10-17T00:16:13.698Z,99.90
2022-10-17T00:18:40.737Z,99.90
2022-10-17T00:21:16.579Z,99.90
2022-10-17T00:23:43.913Z,99.90
2022-10-17T00:26:11.336Z,99.90
2022-10-17T00:28:38.482Z,99.90
2022-10-17T00:31:07.578Z,99.90
2022-10-17T00:33:35.835Z,99.90
2022-10-17T00:36:09.291Z,99.90
2022-10-17T00:38:37.239Z,99.90
2022-10-17T00:41:04.841Z,99.90
2022-10-17T00:43:56.032Z,99.90
2022-10-17T00:46:26.721Z,99.90
2022-10-17T00:48:55.521Z,99.90
2022-10-17T00:51:40.061Z,99.90
2022-10-17T00:54:08.976Z,99.90
2022-10-17T00:56:36.330Z,99.90
2022-10-17T00:59:47.760Z,99.90
2022-10-17T01:02:19.201Z,99.90
2022-10-17T01:04:51.107Z,99.90
2022-10-17T01:07:18.449Z,99.90
2022-10-17T01:09:46.845Z,99.90
2022-10-17T01:12:22.992Z,99.90
2022-10-17T01:15:23.831Z,99.90
2022-10-17T01:17:56.805Z,99.90
2022-10-17T01:21:01.530Z,99.90
2022-10-17T01:23:58.716Z,99.90
2022-10-17T01:26:52.761Z,99.90
2022-10-17T01:29:57.628Z,99.90
2022-10-17T01:32:47.472Z,99.90
2022-10-17T01:35:25.759Z,99.90
2022-10-17T01:38:11.635Z,99.90
2022-10-17T01:40:56.891Z,99.90
2022-10-17T01:43:40.337Z,99.90
2022-10-17T01:46:22.725Z,99.90
2022-10-17T01:48:55.098Z,99.90
2022-10-17T01:51:42.711Z,99.90
2022-10-17T01:54:15.283Z,99.90
2022-10-17T01:56:44.640Z,99.90
2022-10-17T01:59:22.499Z,99.90
2022-10-17T02:01:53.676Z,99.90
2022-10-17T02:04:29.771Z,99.90
2022-10-17T02:07:22.175Z,99.90
2022-10-17T02:09:49.229Z,99.90
2022-10-17T02:12:40.378Z,99.90
2022-10-17T02:15:32.912Z,99.90
2022-10-17T02:18:30.750Z,99.90
2022-10-17T02:21:06.959Z,99.90
2022-10-17T02:23:54.130Z,99.90
2022-10-17T02:27:14.526Z,99.90
2022-10-17T02:30:03.377Z,99.90
2022-10-17T02:32:48.103Z,99.90
2022-10-17T02:35:22.372Z,99.90
2022-10-17T02:37:51.813Z,99.90
2022-10-17T02:40:22.822Z,99.90
2022-10-17T02:42:54.464Z,99.90
2022-10-17T02:45:24.962Z,99.90
2022-10-17T02:48:09.676Z,99.90
2022-10-17T02:50:45.219Z,99.90
2022-10-17T02:53:17.394Z,99.90
2022-10-17T02:55:53.703Z,99.90
2022-10-17T02:58:24.143Z,99.90
2022-10-17T03:00:52.402Z,99.90
2022-10-17T03:03:27.902Z,99.90
2022-10-17T03:05:55.350Z,99.90
2022-10-17T03:08:25.125Z,99.90
2022-10-17T03:10:52.369Z,99.90
2022-10-17T03:13:20.557Z,99.90
2022-10-17T03:15:47.982Z,99.90
2022-10-17T03:18:15.126Z,99.90
2022-10-17T03:20:42.615Z,99.90
2022-10-17T03:23:09.570Z,99.90
2022-10-17T03:25:37.143Z,99.90
2022-10-17T03:28:05.605Z,99.90
2022-10-17T03:30:33.524Z,99.90
2022-10-17T03:33:01.116Z,99.90
2022-10-17T03:35:28.402Z,99.90
2022-10-17T03:37:56.210Z,99.90
2022-10-17T03:40:24.876Z,99.90
2022-10-17T03:42:53.484Z,99.90
2022-10-17T03:45:20.688Z,99.90
2022-10-17T03:47:48.561Z,99.90
2022-10-17T03:50:16.155Z,99.90
2022-10-17T03:52:48.152Z,99.90
2022-10-17T03:55:16.073Z,99.90
2022-10-17T03:57:45.598Z,99.90
2022-10-17T04:00:14.878Z,99.90
2022-10-17T04:02:42.219Z,99.90
2022-10-17T04:05:15.019Z,99.90
2022-10-17T04:07:42.199Z,99.90
2022-10-17T04:10:11.042Z,99.90
2022-10-17T04:12:39.578Z,99.90
2022-10-17T04:15:07.597Z,99.90
2022-10-17T04:17:38.161Z,99.90
2022-10-17T04:20:07.498Z,99.90
2022-10-17T04:22:34.914Z,99.90
2022-10-17T04:25:02.496Z,99.90
2022-10-17T04:27:42.007Z,99.90
2022-10-17T04:30:10.057Z,99.90
2022-10-17T04:32:41.236Z,99.90
2022-10-17T04:35:14.646Z,99.90
2022-10-17T04:37:46.777Z,99.90
2022-10-17T04:40:18.609Z,99.90
2022-10-17T04:42:46.296Z,99.90
2022-10-17T04:45:17.150Z,99.90
2022-10-17T04:47:45.300Z,99.90
2022-10-17T04:50:12.606Z,99.90
2022-10-17T04:52:40.809Z,99.90
2022-10-17T04:55:09.629Z,99.90
2022-10-17T04:57:37.042Z,99.90
2022-10-17T05:00:17.343Z,99.90
2022-10-17T05:02:56.326Z,99.90
2022-10-17T05:05:23.670Z,99.90
2022-10-17T05:07:53.803Z,99.90
2022-10-17T05:10:25.335Z,99.90
2022-10-17T05:12:53.940Z,99.90
2022-10-17T05:15:24.011Z,99.90
2022-10-17T05:17:56.144Z,99.90
2022-10-17T05:20:24.806Z,99.90
2022-10-17T05:22:52.267Z,99.90
2022-10-17T05:25:20.045Z,99.90
2022-10-17T05:27:47.168Z,99.90
2022-10-17T05:30:16.189Z,99.90
2022-10-17T05:32:43.950Z,99.90
2022-10-17T05:35:11.254Z,99.90
2022-10-17T05:37:39.232Z,99.90
2022-10-17T05:40:07.474Z,99.90
2022-10-17T05:42:34.867Z,99.90
2022-10-17T05:45:02.965Z,99.90
2022-10-17T05:47:31.004Z,99.90
2022-10-17T05:49:59.220Z,99.90
2022-10-17T05:52:33.210Z,99.90
2022-10-17T05:55:10.865Z,99.90
2022-10-17T05:57:38.132Z,99.90
2022-10-17T06:00:09.788Z,99.90
2022-10-17T06:02:47.657Z,99.90
2022-10-17T06:05:16.936Z,99.90
2022-10-17T06:07:44.021Z,99.90
2022-10-17T06:10:13.364Z,99.90
2022-10-17T06:12:40.344Z,99.90
2022-10-17T06:15:08.398Z,99.90
2022-10-17T06:17:35.909Z,99.90
2022-10-17T06:20:03.714Z,99.90
2022-10-17T06:22:31.310Z,99.90
2022-10-17T06:25:00.703Z,99.90
2022-10-17T06:27:27.790Z,99.90
2022-10-17T06:29:55.077Z,99.90
2022-10-17T06:32:22.218Z,99.90
2022-10-17T06:34:51.164Z,99.90
2022-10-17T06:37:18.827Z,99.90
2022-10-17T06:39:48.586Z,99.90
2022-10-17T06:42:20.977Z,99.90
2022-10-17T06:44:55.705Z,99.90
2022-10-17T06:47:43.285Z,99.90
2022-10-17T06:50:42.921Z,99.90
2022-10-17T06:53:30.680Z,99.90
2022-10-17T06:56:11.054Z,99.90
2022-10-17T06:58:55.367Z,99.90
2022-10-17T07:01:31.265Z,99.90
2022-10-17T07:04:00.500Z,99.90
2022-10-17T07:06:29.392Z,99.90
2022-10-17T07:09:01.007Z,99.90
2022-10-17T07:11:28.451Z,99.90
2022-10-17T07:13:55.447Z,99.90
2022-10-17T07:16:22.794Z,99.90
2022-10-17T07:18:59.612Z,99.90
2022-10-17T07:21:27.355Z,99.90
2022-10-17T07:23:54.332Z,99.90
2022-10-17T07:26:23.820Z,99.90
2022-10-17T07:28:53.743Z,99.90
2022-10-17T07:31:34.940Z,99.90
2022-10-17T07:34:02.346Z,99.90
2022-10-17T07:36:30.567Z,99.90
2022-10-17T07:38:59.878Z,93.40
2022-10-17T07:41:27.896Z,91.40
2022-10-17T07:43:56.878Z,70.30
2022-10-17T07:46:31.537Z,58.60
2022-10-17T07:49:00.172Z,67.70
2022-10-17T07:51:28.758Z,58.20
2022-10-17T07:53:55.926Z,47.40
2022-10-17T07:56:24.789Z,55.40
2022-10-17T07:58:52.625Z,57.90
2022-10-17T08:01:19.952Z,46.20
2022-10-17T08:03:50.709Z,27.00
2022-10-17T08:06:18.494Z,26.70
2022-10-17T08:08:45.749Z,30.10
2022-10-17T08:11:14.561Z,37.50
2022-10-17T08:13:42.152Z,44.00
2022-10-17T08:16:11.627Z,54.60
2022-10-17T08:18:40.558Z,60.30
2022-10-17T08:21:08.669Z,58.00
2022-10-17T08:23:39.450Z,50.10
2022-10-17T08:26:10.520Z,54.80
2022-10-17T08:28:39.981Z,59.60
2022-10-17T08:31:10.223Z,59.30
2022-10-17T08:33:37.665Z,61.60
2022-10-17T08:36:06.555Z,56.80
2022-10-17T08:38:36.058Z,57.60
2022-10-17T08:41:24.659Z,61.70
2022-10-17T08:44:10.732Z,52.90
2022-10-17T08:46:41.304Z,50.50
2022-10-17T08:49:41.917Z,56.10
2022-10-17T08:52:29.898Z,61.70
2022-10-17T08:54:57.013Z,48.90
2022-10-17T08:57:24.423Z,54.30
2022-10-17T08:59:54.240Z,49.90
2022-10-17T09:02:47.695Z,55.70
2022-10-17T09:05:19.355Z,65.30
2022-10-17T09:08:10.455Z,57.30
2022-10-17T09:10:56.866Z,51.20
2022-10-17T09:13:53.243Z,40.70
2022-10-17T09:16:47.362Z,41.50
2022-10-17T09:19:27.198Z,43.90
2022-10-17T09:22:00.851Z,49.50
2022-10-17T09:24:44.831Z,57.90
2022-10-17T09:27:23.738Z,49.40
2022-10-17T09:30:03.100Z,54.30
2022-10-17T09:32:30.414Z,54.30
2022-10-17T09:34:57.721Z,56.60
2022-10-17T09:37:30.933Z,55.20
2022-10-17T09:39:58.258Z,53.70
2022-10-17T09:42:28.184Z,52.10
2022-10-17T09:45:26.039Z,56.10
2022-10-17T09:48:19.980Z,60.00
2022-10-17T09:50:57.772Z,39.70
2022-10-17T09:53:41.106Z,29.20
2022-10-17T09:56:15.968Z,12.90
2022-10-17T09:58:54.348Z,7.50
2022-10-17T10:01:25.057Z,1.00
2022-10-17T10:04:11.324Z,10.80
2022-10-17T10:06:39.909Z,10.30
2022-10-17T10:09:22.394Z,1.00
2022-10-17T10:11:54.804Z,1.00
2022-10-17T10:14:23.322Z,1.00
2022-10-17T10:16:53.721Z,1.00
2022-10-17T10:19:36.906Z,1.00
2022-10-17T10:22:15.957Z,1.00
2022-10-17T10:24:43.071Z,1.00
2022-10-17T10:27:18.722Z,1.00
2022-10-17T10:29:52.885Z,1.00
2022-10-17T10:32:31.227Z,1.00
2022-10-17T10:35:03.783Z,1.00
2022-10-17T10:37:34.950Z,1.00
2022-10-17T10:40:05.078Z,1.00
2022-10-17T10:42:39.516Z,1.00
2022-10-17T10:45:23.712Z,1.00
2022-10-17T10:48:02.316Z,1.00
2022-10-17T10:50:48.233Z,1.00
2022-10-17T10:53:36.864Z,1.00
2022-10-17T10:56:22.701Z,1.00
2022-10-17T10:59:04.138Z,1.00
2022-10-17T11:01:31.099Z,1.00
2022-10-17T11:04:07.155Z,1.00
2022-10-17T11:06:38.944Z,1.00
2022-10-17T11:09:24.838Z,1.00
2022-10-17T11:12:14.865Z,1.00
2022-10-17T11:15:07.747Z,1.00
2022-10-17T11:17:55.300Z,1.00
2022-10-17T11:20:22.530Z,1.00
2022-10-17T11:22:57.925Z,1.00
2022-10-17T11:25:37.190Z,1.00
2022-10-17T11:28:14.588Z,1.00
2022-10-17T11:30:48.288Z,1.00
2022-10-17T11:33:22.170Z,99.90
2022-10-17T11:35:53.120Z,99.90
2022-10-17T11:38:38.501Z,99.90
2022-10-17T11:41:09.002Z,99.90
2022-10-17T11:43:48.345Z,99.90
2022-10-17T11:46:25.623Z,99.90
2022-10-17T11:49:13.091Z,99.90
2022-10-17T11:52:00.389Z,99.90
2022-10-17T11:54:41.337Z,99.90
2022-10-17T11:57:40.547Z,99.90
2022-10-17T12:00:40.766Z,99.90
2022-10-17T12:03:19.183Z,99.90
2022-10-17T12:05:53.180Z,99.90
2022-10-17T12:08:34.804Z,99.90
2022-10-17T12:11:24.916Z,99.90
2022-10-17T12:13:57.007Z,99.90
2022-10-17T12:16:29.846Z,99.90
2022-10-17T12:19:03.013Z,99.90
2022-10-17T12:22:01.980Z,99.90
2022-10-17T12:24:37.344Z,99.90
2022-10-17T12:27:32.494Z,99.90
2022-10-17T12:30:14.784Z,99.90
2022-10-17T12:33:06.654Z,99.90
2022-10-17T12:35:37.191Z,99.90
2022-10-17T12:38:19.517Z,99.90
2022-10-17T12:40:50.774Z,99.90
2022-10-17T12:43:17.729Z,99.90
2022-10-17T12:45:55.624Z,99.90
2022-10-17T12:48:34.783Z,99.90
2022-10-17T12:54:12.787Z,99.90
2022-10-17T12:56:44.319Z,99.90
2022-10-17T12:59:22.321Z,99.90
2022-10-17T13:01:53.495Z,99.90
2022-10-17T13:04:21.299Z,99.90
2022-10-17T13:06:59.066Z,99.90
2022-10-17T13:09:28.409Z,99.90
2022-10-17T13:11:57.892Z,99.90
2022-10-17T13:14:26.521Z,99.90
2022-10-17T13:16:59.662Z,99.90
2022-10-17T13:19:31.120Z,99.90
2022-10-17T13:22:06.895Z,99.90
2022-10-17T13:24:37.053Z,99.90
2022-10-17T13:27:06.730Z,99.90
2022-10-17T13:29:33.982Z,99.90
2022-10-17T13:32:05.795Z,99.90
2022-10-17T13:34:34.176Z,99.90
2022-10-17T13:37:10.886Z,99.90
2022-10-17T13:39:54.796Z,99.90
2022-10-17T13:42:27.334Z,99.90
2022-10-17T13:44:55.654Z,99.90
2022-10-17T13:47:37.670Z,99.90
2022-10-17T13:50:26.438Z,99.90
2022-10-17T13:53:21.087Z,99.90
2022-10-17T13:56:30.305Z,99.90
2022-10-17T13:59:00.951Z,99.90
2022-10-17T14:01:29.518Z,99.90
2022-10-17T14:04:08.375Z,99.90
2022-10-17T14:06:46.319Z,99.90
2022-10-17T14:09:25.663Z,99.90
2022-10-17T14:11:57.932Z,99.90
2022-10-17T14:14:26.365Z,99.90
2022-10-17T14:16:54.100Z,99.90
2022-10-17T14:19:34.979Z,99.90
2022-10-17T14:22:18.322Z,99.90
2022-10-17T14:24:46.195Z,1.00
2022-10-17T14:27:42.430Z,1.00
2022-10-17T14:30:58.067Z,1.00
2022-10-17T14:33:26.557Z,99.90
2022-10-17T14:35:56.171Z,99.90
2022-10-17T14:38:23.708Z,1.00
2022-10-17T14:41:23.544Z,99.90
2022-10-17T14:44:00.654Z,1.00
2022-10-17T14:46:28.261Z,1.00
2022-10-17T14:49:02.833Z,1.00
2022-10-17T14:51:39.970Z,1.00
2022-10-17T14:54:23.760Z,1.00
2022-10-17T14:56:53.724Z,1.00
2022-10-17T14:59:51.687Z,1.00
2022-10-17T15:02:12.180Z,1.00
2022-10-17T15:04:39.210Z,1.00
2022-10-17T15:07:06.689Z,1.00
2022-10-17T15:09:33.816Z,1.00
2022-10-17T15:12:02.914Z,1.00
2022-10-17T15:14:30.246Z,1.00
2022-10-17T15:16:57.396Z,2.60
2022-10-17T15:19:24.386Z,4.40
2022-10-17T15:21:51.595Z,7.30
2022-10-17T15:24:18.700Z,8.70
2022-10-17T15:26:47.313Z,17.30
2022-10-17T15:29:15.687Z,20.60
2022-10-17T15:31:42.973Z,25.30
2022-10-17T15:34:11.736Z,26.40
2022-10-17T15:36:41.618Z,31.70
2022-10-17T15:39:10.032Z,33.40
2022-10-17T15:41:37.335Z,38.30
2022-10-17T15:44:04.648Z,43.60
2022-10-17T15:46:35.432Z,47.20
2022-10-17T15:49:06.044Z,51.70
2022-10-17T15:51:33.748Z,51.60
2022-10-17T15:54:04.929Z,52.60
2022-10-17T15:56:38.937Z,54.60
2022-10-17T15:59:12.832Z,59.40
2022-10-17T16:01:43.012Z,57.40
2022-10-17T16:04:13.479Z,62.00
2022-10-17T16:06:41.114Z,64.60
2022-10-17T16:09:08.556Z,66.80
2022-10-17T16:11:38.978Z,68.00
2022-10-17T16:14:12.159Z,68.00
2022-10-17T16:16:39.561Z,68.90
2022-10-17T16:19:06.806Z,67.20
2022-10-17T16:21:38.072Z,68.10
2022-10-17T16:24:06.098Z,69.90
2022-10-17T16:26:35.372Z,73.70
2022-10-17T16:29:04.727Z,71.20
2022-10-17T16:31:40.398Z,74.50
2022-10-17T16:34:15.543Z,75.00
2022-10-17T16:36:43.006Z,76.80
2022-10-17T16:39:10.073Z,79.10
2022-10-17T16:41:39.044Z,79.20
2022-10-17T16:44:14.827Z,78.90
2022-10-17T16:46:42.138Z,78.10
2022-10-17T16:49:10.213Z,77.30
2022-10-17T16:51:37.613Z,79.10
2022-10-17T16:54:04.834Z,78.10
2022-10-17T16:56:32.993Z,78.60
2022-10-17T16:59:01.033Z,81.30
2022-10-17T17:01:31.559Z,80.10
2022-10-17T17:03:58.874Z,82.90
2022-10-17T17:06:28.974Z,81.60
2022-10-17T17:08:56.633Z,83.20
2022-10-17T17:11:27.597Z,85.00
2022-10-17T17:13:59.015Z,85.80
2022-10-17T17:16:27.836Z,86.20
2022-10-17T17:18:57.019Z,85.50
2022-10-17T17:21:24.585Z,84.30
2022-10-17T17:23:51.878Z,86.70
2022-10-17T17:26:22.946Z,84.60
2022-10-17T17:28:51.449Z,87.50
2022-10-17T17:31:22.359Z,87.90
2022-10-17T17:33:50.178Z,89.10
2022-10-17T17:36:20.767Z,88.80
2022-10-17T17:38:49.230Z,90.70
2022-10-17T17:41:18.418Z,90.50
2022-10-17T17:43:46.904Z,90.10
2022-10-17T17:46:16.638Z,91.30
2022-10-17T17:48:45.264Z,91.60
2022-10-17T17:51:15.517Z,93.00
2022-10-17T17:53:42.784Z,91.70
2022-10-17T17:56:18.009Z,93.40
2022-10-17T17:58:48.512Z,93.50
2022-10-17T18:01:21.291Z,92.90
2022-10-17T18:03:49.934Z,93.00
2022-10-17T18:06:18.092Z,93.30
2022-10-17T18:08:48.022Z,93.50
2022-10-17T18:11:18.319Z,94.50
2022-10-17T18:13:52.524Z,94.30
2022-10-17T18:16:19.751Z,95.60
2022-10-17T18:18:46.784Z,96.10
2022-10-17T18:21:14.492Z,96.10
2022-10-17T18:23:45.019Z,96.80
2022-10-17T18:26:12.829Z,97.00
2022-10-17T18:31:26.573Z,98.00
2022-10-17T18:33:55.048Z,98.80
2022-10-17T18:36:23.240Z,97.90
2022-10-17T18:38:50.240Z,99.30
2022-10-17T18:41:20.266Z,99.60
2022-10-17T18:43:48.976Z,99.50
2022-10-17T18:46:18.482Z,99.80
2022-10-17T18:48:46.690Z,99.00
2022-10-17T18:51:16.446Z,99.50
2022-10-17T18:53:50.302Z,99.40
2022-10-17T18:56:18.673Z,99.90
2022-10-17T18:58:46.366Z,99.90
2022-10-17T19:01:19.293Z,99.10
2022-10-17T19:03:50.948Z,99.90
2022-10-17T19:06:21.106Z,99.90
2022-10-17T19:08:48.709Z,99.80
2022-10-17T19:11:24.769Z,99.90
2022-10-17T19:13:52.834Z,99.90
2022-10-17T19:16:23.068Z,99.90
2022-10-17T19:19:01.952Z,99.90
2022-10-17T19:21:29.306Z,99.90
2022-10-17T19:23:59.316Z,99.90
2022-10-17T19:26:28.807Z,99.90
2022-10-17T19:28:56.590Z,99.90
2022-10-17T19:31:27.006Z,99.90
2022-10-17T19:33:56.259Z,99.90
2022-10-17T19:36:30.492Z,99.90
2022-10-17T19:39:03.543Z,99.90
2022-10-17T19:41:30.996Z,99.90
2022-10-17T19:43:59.567Z,99.90
2022-10-17T19:46:29.057Z,99.90
2022-10-17T19:48:56.562Z,99.90
2022-10-17T19:51:25.137Z,99.90
2022-10-17T19:53:53.969Z,99.90
2022-10-17T19:56:22.906Z,99.90
2022-10-17T19:58:50.535Z,99.90
2022-10-17T20:01:20.909Z,99.90
2022-10-17T20:03:51.293Z,99.90
2022-10-17T20:06:19.239Z,99.90
2022-10-17T20:08:46.305Z,99.90
2022-10-17T20:11:19.500Z,99.90
2022-10-17T20:13:47.867Z,99.90
2022-10-17T20:16:21.397Z,99.90
2022-10-17T20:18:49.923Z,99.90
2022-10-17T20:21:21.391Z,99.90
2022-10-17T20:23:48.487Z,99.90
2022-10-17T20:26:26.323Z,99.90
2022-10-17T20:29:09.019Z,99.90
2022-10-17T20:31:36.622Z,99.90
2022-10-17T20:34:04.177Z,99.90
2022-10-17T20:36:32.369Z,99.90
2022-10-17T20:38:59.634Z,99.90
2022-10-17T20:41:27.279Z,99.90
2022-10-17T20:43:55.311Z,99.90
2022-10-17T20:46:35.830Z,99.90
2022-10-17T20:49:06.069Z,99.90
2022-10-17T20:51:34.642Z,99.90
2022-10-17T20:54:02.714Z,99.90
2022-10-17T20:56:31.926Z,99.90
2022-10-17T20:59:01.825Z,99.90
2022-10-17T21:01:30.837Z,99.90
2022-10-17T21:04:06.105Z,99.90
2022-10-17T21:06:38.307Z,99.90
2022-10-17T21:09:06.026Z,99.90
2022-10-17T21:11:33.449Z,99.90
2022-10-17T21:14:03.608Z,99.90
2022-10-17T21:16:33.402Z,99.90
2022-10-17T21:19:01.075Z,99.90
2022-10-17T21:21:36.864Z,99.90
2022-10-17T21:24:12.465Z,99.90
2022-10-17T21:26:41.772Z,99.90
2022-10-17T21:29:09.868Z,99.90
2022-10-17T21:31:39.068Z,99.90
2022-10-17T21:34:11.761Z,99.90
2022-10-17T21:36:39.248Z,99.90
2022-10-17T21:39:09.206Z,99.90
2022-10-17T21:41:36.427Z,99.90
2022-10-17T21:48:27.819Z,99.90
2022-10-17T21:51:13.674Z,99.90
2022-10-17T21:58:42.259Z,99.90
2022-10-17T22:18:15.065Z,99.90
2022-10-17T22:28:39.097Z,99.90
2022-10-17T22:38:46.602Z,99.90
2022-10-17T22:41:13.755Z,99.90
2022-10-17T22:43:41.017Z,99.90
2022-10-17T22:46:08.341Z,99.90
2022-10-17T22:48:36.758Z,99.90
2022-10-17T22:51:03.806Z,99.90
2022-10-17T22:53:31.073Z,99.90
2022-10-17T22:56:00.774Z,99.90
2022-10-17T22:58:30.085Z,99.90
2022-10-17T23:00:57.330Z,99.90
2022-10-17T23:03:27.161Z,99.90
2022-10-17T23:05:54.700Z,99.90
2022-10-17T23:08:22.013Z,99.90
2022-10-17T23:10:49.002Z,99.90
2022-10-17T23:13:16.436Z,99.90
2022-10-17T23:15:43.589Z,99.90
2022-10-17T23:18:10.931Z,99.90
2022-10-17T23:20:38.272Z,99.90
2022-10-17T23:23:05.802Z,99.90
2022-10-17T23:25:35.933Z,99.90
2022-10-17T23:28:03.232Z,99.90
2022-10-17T23:30:32.273Z,99.90
2022-10-17T23:32:59.579Z,99.90
2022-10-17T23:35:26.549Z,99.90
2022-10-17T23:37:53.752Z,99.90
2022-10-17T23:40:20.868Z,99.90
2022-10-17T23:42:48.086Z,99.90
2022-10-17T23:45:15.226Z,99.90
2022-10-17T23:47:42.438Z,99.90
2022-10-17T23:50:09.535Z,99.90
2022-10-17T23:52:36.726Z,99.90
2022-10-17T23:55:04.474Z,99.90
2022-10-17T23:57:32.040Z,99.90
2022-10-17T23:59:59.349Z,99.90
